Time;durP1;ratioP1;P1;durP2;ratioP2;P2;SDS_P1;SDS_P2;PMS_P1;PMS_P2;Temp;Humidity;BMP_temperature;BMP_pressure;BME280_temperature;BME280_humidity;BME280_pressure;Samples;Min_cycle;Max_cycle;Signal;HPM_P1;HPM_P2
2022/04/09 00:01:33;;;;;;;27.52;3.28;;;2.40;70.60;;;;;;4112743;28;20061;-82
2022/04/09 00:03:33;;;;;;;19.95;3.08;;;2.40;70.40;;;;;;4114396;28;20109;-82
2022/04/09 00:05:34;;;;;;;18.95;2.97;;;2.40;70.40;;;;;;4107736;28;20545;-83
2022/04/09 00:07:35;;;;;;;19.02;2.83;;;2.40;70.50;;;;;;4112915;28;20057;-83
2022/04/09 00:09:37;;;;;;;19.65;2.38;;;2.40;70.30;;;;;;4110130;28;20026;-82
2022/04/09 00:11:38;;;;;;;18.45;2.67;;;2.40;70.40;;;;;;4111334;28;20043;-81
2022/04/09 00:13:41;;;;;;;21.90;2.40;;;2.40;70.40;;;;;;4105103;28;20129;-82
2022/04/09 00:15:41;;;;;;;18.70;2.38;;;2.40;70.30;;;;;;4112710;28;20029;-81
2022/04/09 00:17:44;;;;;;;13.35;2.28;;;2.40;70.30;;;;;;4112202;28;20035;-82
2022/04/09 00:19:45;;;;;;;19.52;2.47;;;2.40;70.30;;;;;;4107680;28;20035;-82
2022/04/09 00:21:46;;;;;;;12.32;2.55;;;2.50;70.30;;;;;;4107713;28;20460;-83
2022/04/09 00:23:46;;;;;;;15.18;2.13;;;2.40;70.20;;;;;;4111090;28;20104;-81
2022/04/09 00:25:47;;;;;;;25.70;2.63;;;2.40;70.20;;;;;;4132427;28;20475;-81
2022/04/09 00:27:48;;;;;;;22.92;2.95;;;2.50;70.20;;;;;;4110578;28;20030;-82
2022/04/09 00:29:48;;;;;;;17.08;2.30;;;2.50;70.90;;;;;;4110577;28;20094;-82
2022/04/09 00:31:49;;;;;;;18.63;2.53;;;2.50;70.10;;;;;;4114429;28;20495;-82
2022/04/09 00:33:50;;;;;;;20.00;2.35;;;2.50;70.10;;;;;;4112637;28;20023;-81
2022/04/09 00:35:50;;;;;;;16.52;2.55;;;2.50;70.10;;;;;;4110430;28;20055;-83
2022/04/09 00:37:51;;;;;;;22.08;2.78;;;2.50;70.10;;;;;;4110814;28;20564;-82
2022/04/09 00:39:52;;;;;;;23.00;2.40;;;2.50;70.10;;;;;;4107319;28;20706;-83
2022/04/09 00:41:52;;;;;;;16.55;2.35;;;2.50;70.10;;;;;;4109488;28;20620;-82
2022/04/09 00:43:53;;;;;;;24.15;2.72;;;2.50;70.20;;;;;;4107338;28;20054;-82
2022/04/09 00:45:53;;;;;;;19.65;2.53;;;2.50;70.10;;;;;;4113230;28;20041;-82
2022/04/09 00:47:54;;;;;;;22.27;3.25;;;2.50;70.10;;;;;;4100942;28;20027;-83
2022/04/09 00:49:55;;;;;;;20.75;2.95;;;2.50;70.10;;;;;;4108051;28;20623;-82
2022/04/09 00:51:56;;;;;;;21.90;2.40;;;2.50;70.10;;;;;;4106438;28;20039;-82
2022/04/09 00:53:58;;;;;;;18.00;2.30;;;2.50;70.00;;;;;;4108929;28;20087;-82
2022/04/09 00:56:13;;;;;;;21.58;2.63;;;2.60;70.20;;;;;;4109359;28;20128;-85
2022/04/09 00:58:15;;;;;;;16.00;2.30;;;2.60;70.20;;;;;;4106700;28;20391;-82
2022/04/09 01:00:17;;;;;;;26.08;3.90;;;2.60;70.10;;;;;;4095515;28;20030;-81
2022/04/09 01:02:18;;;;;;;22.77;2.50;;;2.60;70.10;;;;;;4105376;28;20046;-83
2022/04/09 01:04:20;;;;;;;21.75;2.85;;;2.60;70.00;;;;;;4105263;28;20488;-82
2022/04/09 01:06:21;;;;;;;13.77;2.30;;;2.60;69.90;;;;;;4105068;28;20031;-82
2022/04/09 01:08:24;;;;;;;16.92;2.33;;;2.60;69.90;;;;;;4107612;28;20046;-81
2022/04/09 01:10:24;;;;;;;28.75;3.25;;;2.60;69.90;;;;;;4109298;28;20504;-82
2022/04/09 01:12:25;;;;;;;21.67;3.20;;;2.60;69.90;;;;;;4105504;28;20023;-83
2022/04/09 01:14:26;;;;;;;26.55;2.85;;;2.70;70.00;;;;;;4117358;28;22009;-82
2022/04/09 01:16:29;;;;;;;23.00;2.42;;;2.80;70.00;;;;;;4109843;28;20034;-81
2022/04/09 01:18:33;;;;;;;17.98;2.97;;;2.70;70.00;;;;;;4105177;28;20683;-82
2022/04/09 01:20:34;;;;;;;24.77;3.15;;;2.70;69.90;;;;;;4109773;28;20033;-81
2022/04/09 01:22:35;;;;;;;18.05;2.33;;;2.70;69.80;;;;;;4108274;28;20471;-82
2022/04/09 01:24:35;;;;;;;29.95;2.88;;;2.70;69.80;;;;;;4107757;28;20366;-82
2022/04/09 01:26:38;;;;;;;23.92;3.15;;;2.70;69.70;;;;;;4106620;28;20026;-82
2022/04/09 01:28:39;;;;;;;18.48;2.80;;;2.70;69.70;;;;;;4102454;28;20035;-81
2022/04/09 01:30:40;;;;;;;25.58;2.97;;;2.70;69.60;;;;;;4108452;28;20030;-82
2022/04/09 01:32:41;;;;;;;15.50;2.22;;;2.80;69.60;;;;;;4107119;28;20034;-82
2022/04/09 01:34:41;;;;;;;22.77;2.40;;;2.80;69.60;;;;;;4103648;28;20505;-82
2022/04/09 01:36:42;;;;;;;21.27;2.40;;;2.70;69.40;;;;;;4116332;28;20034;-82
2022/04/09 01:38:43;;;;;;;15.73;2.28;;;2.80;69.50;;;;;;4112663;28;20038;-81
2022/04/09 01:40:43;;;;;;;12.02;2.20;;;2.80;69.40;;;;;;4107006;28;20541;-82
2022/04/09 01:42:44;;;;;;;13.60;2.00;;;2.80;69.40;;;;;;4105476;28;20065;-82
2022/04/09 01:44:45;;;;;;;16.45;2.38;;;2.80;69.40;;;;;;4108378;28;20034;-82
2022/04/09 01:46:45;;;;;;;26.85;2.35;;;2.70;69.30;;;;;;4109855;28;20516;-82
2022/04/09 01:48:46;;;;;;;22.45;2.50;;;2.80;69.40;;;;;;4111240;28;20130;-82
2022/04/09 01:50:47;;;;;;;20.95;2.40;;;2.70;69.30;;;;;;4111072;28;20034;-82
2022/04/09 01:52:48;;;;;;;13.25;2.53;;;2.70;69.20;;;;;;4102957;28;20042;-82
2022/04/09 01:54:48;;;;;;;31.73;3.30;;;2.80;69.30;;;;;;4107545;28;20453;-82
2022/04/09 01:56:49;;;;;;;18.77;2.97;;;2.70;69.20;;;;;;4107407;28;20231;-82
2022/04/09 01:58:49;;;;;;;22.63;2.53;;;2.70;69.20;;;;;;4107845;28;20409;-82
2022/04/09 02:00:51;;;;;;;19.95;2.45;;;2.70;69.20;;;;;;4106144;28;20151;-81
2022/04/09 02:02:52;;;;;;;11.93;2.17;;;2.70;69.10;;;;;;4108341;28;20042;-82
2022/04/09 02:04:55;;;;;;;14.75;2.17;;;2.60;69.10;;;;;;4105204;28;20038;-82
2022/04/09 02:06:56;;;;;;;;;;;2.60;69.10;;;;;;4103775;28;20023;-82
2022/04/09 02:08:56;;;;;;;15.15;2.17;;;2.60;69.10;;;;;;4108579;28;19918;-82
2022/04/09 02:10:57;;;;;;;12.15;2.38;;;2.60;69.00;;;;;;4120525;28;20030;-82
2022/04/09 02:12:58;;;;;;;15.52;2.30;;;2.60;69.10;;;;;;4109618;28;20461;-82
2022/04/09 02:15:01;;;;;;;28.85;2.80;;;2.60;69.10;;;;;;4107046;28;20404;-82
2022/04/09 02:17:02;;;;;;;16.40;2.83;;;2.50;69.10;;;;;;4105511;28;20039;-82
2022/04/09 02:19:03;;;;;;;18.83;2.47;;;2.50;69.20;;;;;;4109997;28;20066;-82
2022/04/09 02:21:03;;;;;;;14.60;2.20;;;2.50;69.30;;;;;;4107254;28;20031;-81
2022/04/09 02:23:04;;;;;;;18.85;2.25;;;2.50;69.40;;;;;;4108886;28;20382;-82
2022/04/09 02:25:06;;;;;;;17.67;2.05;;;2.50;69.50;;;;;;4107324;28;20114;-82
2022/04/09 02:27:07;;;;;;;12.38;1.90;;;2.40;69.60;;;;;;4107600;28;20034;-82
2022/04/09 02:29:08;;;;;;;15.43;2.10;;;2.40;69.70;;;;;;4105827;28;20038;-81
2022/04/09 02:31:08;;;;;;;20.10;2.20;;;2.40;69.80;;;;;;4107988;28;20035;-81
2022/04/09 02:33:09;;;;;;;22.15;2.63;;;2.40;69.90;;;;;;4109339;28;20043;-81
2022/04/09 02:35:11;;;;;;;17.20;2.78;;;2.40;70.00;;;;;;4108717;28;20041;-81
2022/04/09 02:37:12;;;;;;;18.95;2.33;;;2.40;70.20;;;;;;4115662;28;20072;-82
2022/04/09 02:39:13;;;;;;;16.63;2.20;;;2.40;70.40;;;;;;4105539;28;20078;-82
2022/04/09 02:41:14;;;;;;;22.10;2.13;;;2.40;70.70;;;;;;4108049;28;20125;-81
2022/04/09 02:43:14;;;;;;;11.48;1.95;;;2.40;70.90;;;;;;4109093;28;20058;-84
2022/04/09 02:45:15;;;;;;;27.02;3.05;;;2.40;71.40;;;;;;4108617;28;20801;-81
2022/04/09 02:47:15;;;;;;;19.20;2.28;;;2.40;71.70;;;;;;4111910;28;20023;-82
2022/04/09 02:49:16;;;;;;;13.52;1.48;;;2.50;72.20;;;;;;4106512;28;20030;-83
2022/04/09 02:51:18;;;;;;;9.35;1.25;;;2.50;72.70;;;;;;4110222;28;20046;-82
2022/04/09 02:53:18;;;;;;;7.20;1.08;;;2.50;73.30;;;;;;4108629;28;20033;-81
2022/04/09 02:55:19;;;;;;;8.02;0.90;;;2.60;73.70;;;;;;4109285;28;20504;-80
2022/04/09 02:57:19;;;;;;;9.40;1.30;;;2.60;73.90;;;;;;4109370;28;20039;-81
2022/04/09 02:59:20;;;;;;;7.43;1.08;;;2.60;74.10;;;;;;4107683;28;20074;-82
2022/04/09 03:01:20;;;;;;;14.45;1.67;;;2.70;74.00;;;;;;4107268;28;20035;-81
2022/04/09 03:03:21;;;;;;;12.15;1.48;;;2.70;73.90;;;;;;4109735;28;20030;-82
2022/04/09 03:05:22;;;;;;;9.30;1.42;;;2.60;73.90;;;;;;4105172;28;20091;-81
2022/04/09 03:07:23;;;;;;;7.47;1.40;;;2.60;73.80;;;;;;4111235;28;20031;-82
2022/04/09 03:09:25;;;;;;;10.45;1.10;;;2.70;73.70;;;;;;4110712;28;20491;-82
2022/04/09 03:11:26;;;;;;;7.60;1.45;;;2.60;73.60;;;;;;4102126;28;20027;-81
2022/04/09 03:13:26;;;;;;;8.07;1.30;;;2.70;73.50;;;;;;4107688;28;20038;-81
2022/04/09 03:15:29;;;;;;;10.88;1.25;;;2.60;73.40;;;;;;4107050;28;20038;-81
2022/04/09 03:17:29;;;;;;;15.98;1.95;;;2.60;73.50;;;;;;4104507;28;20035;-82
2022/04/09 03:19:30;;;;;;;15.40;1.80;;;2.60;73.50;;;;;;4098963;28;20118;-84
2022/04/09 03:21:31;;;;;;;8.25;1.13;;;2.60;73.60;;;;;;4103424;28;20050;-81
2022/04/09 03:23:31;;;;;;;8.88;1.42;;;2.60;73.80;;;;;;4104027;28;20046;-82
2022/04/09 03:25:32;;;;;;;9.07;1.27;;;2.60;74.00;;;;;;4105814;28;20484;-82
2022/04/09 03:27:33;;;;;;;10.60;1.45;;;2.60;74.10;;;;;;4103312;28;20106;-82
2022/04/09 03:29:33;;;;;;;13.48;1.48;;;2.60;74.30;;;;;;4110727;28;20456;-82
2022/04/09 03:31:35;;;;;;;5.50;0.95;;;2.60;74.40;;;;;;4105743;28;20030;-82
2022/04/09 03:33:36;;;;;;;8.27;1.58;;;2.60;74.70;;;;;;4103588;28;20058;-81
2022/04/09 03:35:36;;;;;;;9.27;1.50;;;2.60;74.60;;;;;;4105919;28;20034;-82
2022/04/09 03:37:38;;;;;;;10.15;1.55;;;2.60;74.50;;;;;;4106713;28;20033;-82
2022/04/09 03:39:41;;;;;;;12.88;1.48;;;2.60;74.30;;;;;;4109892;28;20027;-81
2022/04/09 03:41:42;;;;;;;7.43;1.00;;;2.60;74.20;;;;;;4106330;28;20027;-82
2022/04/09 03:43:42;;;;;;;5.95;0.93;;;2.60;74.20;;;;;;4105990;28;20089;-82
2022/04/09 03:45:43;;;;;;;9.02;1.10;;;2.60;74.10;;;;;;4113369;28;20023;-82
2022/04/09 03:47:44;;;;;;;8.38;1.17;;;2.60;74.10;;;;;;4108347;28;20027;-81
2022/04/09 03:49:44;;;;;;;5.30;0.93;;;2.60;74.30;;;;;;4114147;28;20027;-82
2022/04/09 03:51:45;;;;;;;9.60;1.08;;;2.60;74.40;;;;;;4126348;28;20127;-82
2022/04/09 03:53:45;;;;;;;9.60;1.20;;;2.60;74.40;;;;;;4109900;28;20254;-82
2022/04/09 03:55:47;;;;;;;7.93;1.13;;;2.60;74.40;;;;;;4110548;28;20433;-82
2022/04/09 03:57:47;;;;;;;7.82;1.10;;;2.60;74.30;;;;;;4112385;28;20035;-82
2022/04/09 03:59:51;;;;;;;12.85;1.00;;;2.60;74.40;;;;;;4112616;28;20236;-82
2022/04/09 04:01:52;;;;;;;8.30;0.95;;;2.60;74.50;;;;;;4102976;28;20222;-83
2022/04/09 04:03:53;;;;;;;9.50;1.00;;;2.60;74.70;;;;;;4107854;28;20122;-82
2022/04/09 04:05:53;;;;;;;4.88;0.80;;;2.60;74.80;;;;;;4111878;28;21444;-82
2022/04/09 04:07:54;;;;;;;9.75;1.23;;;2.60;74.80;;;;;;4116115;28;20051;-82
2022/04/09 04:09:55;;;;;;;13.23;1.73;;;2.60;75.10;;;;;;4114168;28;20027;-81
2022/04/09 04:11:55;;;;;;;6.60;1.42;;;2.50;75.40;;;;;;4113974;28;20508;-81
2022/04/09 04:13:56;;;;;;;6.18;0.68;;;2.60;75.40;;;;;;4113247;28;20099;-82
2022/04/09 04:15:56;;;;;;;13.73;1.92;;;2.50;75.30;;;;;;4108881;28;20035;-82
2022/04/09 04:17:57;;;;;;;10.85;1.15;;;2.50;75.40;;;;;;4104915;28;20031;-83
2022/04/09 04:20:01;;;;;;;7.38;1.17;;;2.50;75.40;;;;;;4109683;28;20038;-83
2022/04/09 04:22:02;;;;;;;8.13;1.15;;;2.60;75.40;;;;;;4108740;28;20049;-82
2022/04/09 04:24:03;;;;;;;10.98;1.08;;;2.50;75.20;;;;;;4107696;28;20674;-84
2022/04/09 04:26:03;;;;;;;8.88;1.10;;;2.60;75.20;;;;;;4116409;28;20108;-83
2022/04/09 04:28:04;;;;;;;6.63;0.98;;;2.60;75.00;;;;;;4110966;28;20633;-82
2022/04/09 04:30:06;;;;;;;5.43;0.65;;;2.60;75.00;;;;;;4111820;28;20019;-83
2022/04/09 04:32:07;;;;;;;7.05;1.02;;;2.60;74.90;;;;;;4108564;28;20039;-82
2022/04/09 04:34:07;;;;;;;10.13;1.27;;;2.60;74.80;;;;;;4106668;28;20082;-82
2022/04/09 04:36:08;;;;;;;7.57;1.17;;;2.60;75.00;;;;;;4112008;28;20133;-82
2022/04/09 04:38:09;;;;;;;13.38;2.17;;;2.60;74.90;;;;;;4109696;28;20145;-83
2022/04/09 04:40:10;;;;;;;11.77;3.05;;;2.60;74.90;;;;;;4114103;28;20094;-82
2022/04/09 04:42:11;;;;;;;9.27;2.40;;;2.70;74.80;;;;;;4112969;28;20043;-82
2022/04/09 04:44:11;;;;;;;16.30;2.90;;;2.60;74.80;;;;;;4107429;28;20102;-81
2022/04/09 04:46:14;;;;;;;11.48;2.20;;;2.60;74.80;;;;;;4114701;28;20573;-83
2022/04/09 04:48:15;;;;;;;18.75;2.20;;;2.60;74.80;;;;;;4105387;28;20027;-82
2022/04/09 04:50:17;;;;;;;11.15;1.77;;;2.60;74.80;;;;;;4114475;28;20031;-82
2022/04/09 04:52:18;;;;;;;14.73;1.77;;;2.60;74.80;;;;;;4115479;28;20248;-81
2022/04/09 04:54:19;;;;;;;13.07;1.90;;;2.60;74.80;;;;;;4115541;28;20027;-81
2022/04/09 04:56:21;;;;;;;13.77;1.73;;;2.60;74.90;;;;;;4111287;28;20094;-82
2022/04/09 04:58:22;;;;;;;16.48;1.55;;;2.70;75.10;;;;;;4111108;28;20038;-82
2022/04/09 05:00:24;;;;;;;15.57;2.00;;;2.70;75.20;;;;;;4109393;28;21170;-82
2022/04/09 05:02:24;;;;;;;13.07;2.10;;;2.70;75.50;;;;;;4101524;28;20533;-82
2022/04/09 05:04:25;;;;;;;15.68;2.67;;;2.70;75.60;;;;;;4114720;28;20030;-82
2022/04/09 05:06:26;;;;;;;17.42;1.90;;;2.70;75.80;;;;;;4109878;28;20027;-82
2022/04/09 05:08:26;;;;;;;12.40;1.85;;;2.80;76.00;;;;;;4106044;28;20027;-83
2022/04/09 05:10:27;;;;;;;17.70;2.25;;;2.80;76.40;;;;;;4115555;28;20034;-82
2022/04/09 05:12:27;;;;;;;13.95;1.50;;;2.90;76.30;;;;;;4106013;28;20229;-83
2022/04/09 05:14:29;;;;;;;12.90;1.65;;;2.90;76.60;;;;;;4111156;28;20050;-83
2022/04/09 05:16:30;;;;;;;19.27;1.80;;;2.90;76.70;;;;;;4107714;28;20037;-82
2022/04/09 05:18:32;;;;;;;11.20;1.48;;;2.90;77.10;;;;;;4101946;28;20030;-82
2022/04/09 05:20:32;;;;;;;10.65;1.60;;;3.00;77.30;;;;;;4104848;28;20110;-83
2022/04/09 05:22:36;;;;;;;15.32;1.60;;;3.00;77.40;;;;;;4110164;28;20030;-83
2022/04/09 05:24:37;;;;;;;15.65;2.35;;;2.90;77.20;;;;;;4104050;28;20042;-83
2022/04/09 05:26:37;;;;;;;14.50;2.10;;;3.00;77.40;;;;;;4115036;28;20027;-82
2022/04/09 05:28:38;;;;;;;21.63;2.40;;;3.10;77.30;;;;;;4106823;28;20027;-82
2022/04/09 05:30:42;;;;;;;12.65;2.05;;;3.10;77.30;;;;;;4100994;28;20133;-82
2022/04/09 05:32:43;;;;;;;14.02;1.95;;;3.10;77.50;;;;;;4105806;28;20472;-83
2022/04/09 05:34:45;;;;;;;8.02;1.20;;;3.10;77.50;;;;;;4113461;28;20130;-83
2022/04/09 05:36:46;;;;;;;9.52;1.58;;;3.10;77.30;;;;;;4099859;28;20031;-83
2022/04/09 05:38:47;;;;;;;14.57;1.33;;;3.20;77.40;;;;;;4103525;28;20442;-83
2022/04/09 05:40:47;;;;;;;11.23;1.60;;;3.20;77.40;;;;;;4107773;28;20042;-83
2022/04/09 05:42:48;;;;;;;17.02;2.08;;;3.20;77.30;;;;;;4107795;28;20552;-82
2022/04/09 05:44:49;;;;;;;9.73;1.30;;;3.30;77.40;;;;;;4106238;28;20398;-83
2022/04/09 05:46:50;;;;;;;20.48;1.85;;;3.30;77.30;;;;;;4104848;28;20189;-83
2022/04/09 05:48:50;;;;;;;11.00;1.38;;;3.30;77.40;;;;;;4110710;28;20066;-83
2022/04/09 05:50:51;;;;;;;18.00;2.03;;;3.40;77.40;;;;;;4108709;28;20513;-83
2022/04/09 05:52:53;;;;;;;8.52;1.70;;;3.40;77.20;;;;;;4105973;28;20038;-83
2022/04/09 05:54:54;;;;;;;10.82;1.42;;;3.40;77.10;;;;;;4106970;28;20086;-83
2022/04/09 05:56:55;;;;;;;11.07;2.15;;;3.40;76.90;;;;;;4109970;28;20026;-82
2022/04/09 05:58:55;;;;;;;9.70;1.58;;;3.50;77.00;;;;;;4107894;28;20046;-82
2022/04/09 06:00:56;;;;;;;11.63;1.98;;;3.50;77.10;;;;;;4110671;28;20037;-83
2022/04/09 06:02:56;;;;;;;13.63;2.63;;;3.50;77.00;;;;;;4111768;28;20026;-82
2022/04/09 06:04:57;;;;;;;19.38;2.35;;;3.60;76.90;;;;;;4107469;28;20058;-83
2022/04/09 06:07:00;;;;;;;10.88;1.63;;;3.70;77.00;;;;;;4105196;28;20401;-83
2022/04/09 06:09:01;;;;;;;20.20;2.53;;;3.60;76.80;;;;;;4105371;28;20026;-83
2022/04/09 06:11:01;;;;;;;16.60;2.03;;;3.70;76.80;;;;;;4108479;28;20121;-83
2022/04/09 06:13:02;;;;;;;10.80;1.50;;;3.70;76.70;;;;;;4108632;28;20113;-83
2022/04/09 06:15:04;;;;;;;9.05;1.77;;;3.80;76.70;;;;;;4110643;28;20106;-83
2022/04/09 06:17:06;;;;;;;7.43;1.40;;;3.80;76.60;;;;;;4106051;28;20034;-83
2022/04/09 06:19:06;;;;;;;12.48;1.60;;;3.90;76.40;;;;;;4123613;28;20038;-83
2022/04/09 06:21:08;;;;;;;6.38;1.33;;;3.90;76.40;;;;;;4108264;28;20058;-83
2022/04/09 06:23:09;;;;;;;8.20;1.27;;;3.90;76.40;;;;;;4107735;28;20058;-84
2022/04/09 06:25:09;;;;;;;8.13;1.27;;;4.00;76.10;;;;;;4109464;28;20039;-84
2022/04/09 06:27:13;;;;;;;13.57;1.50;;;4.00;75.80;;;;;;4106343;28;20548;-84
2022/04/09 06:29:14;;;;;;;12.57;1.42;;;4.10;75.70;;;;;;4109244;28;20031;-84
2022/04/09 06:31:14;;;;;;;8.45;1.35;;;4.10;75.30;;;;;;4112514;28;20127;-84
2022/04/09 06:33:15;;;;;;;2.85;0.80;;;4.20;75.20;;;;;;4109821;28;20039;-84
2022/04/09 06:35:16;;;;;;;10.50;1.30;;;4.20;75.20;;;;;;4124025;28;20057;-84
2022/04/09 06:37:16;;;;;;;7.63;1.40;;;4.30;74.60;;;;;;4105520;28;20038;-83
2022/04/09 06:39:18;;;;;;;13.77;1.48;;;4.30;74.80;;;;;;4108152;28;20045;-85
2022/04/09 06:41:19;;;;;;;13.90;1.27;;;4.40;74.20;;;;;;4107637;28;20042;-84
2022/04/09 06:43:20;;;;;;;13.30;1.88;;;4.40;74.30;;;;;;4106660;28;20048;-84
2022/04/09 06:45:21;;;;;;;10.13;1.08;;;4.50;74.40;;;;;;4107642;28;20361;-85
2022/04/09 06:47:21;;;;;;;5.65;1.23;;;4.50;73.90;;;;;;4107945;28;20050;-83
2022/04/09 06:49:22;;;;;;;7.40;1.38;;;4.50;73.70;;;;;;4102470;28;21296;-83
2022/04/09 06:51:22;;;;;;;12.00;1.67;;;4.60;73.30;;;;;;4106094;28;20035;-84
2022/04/09 06:53:23;;;;;;;11.90;1.95;;;4.60;72.90;;;;;;4099453;28;20029;-83
2022/04/09 06:55:29;;;;;;;11.93;1.70;;;4.70;72.50;;;;;;4108579;28;20497;-82
2022/04/09 06:57:30;;;;;;;13.10;1.60;;;4.70;71.70;;;;;;4110582;28;20035;-84
2022/04/09 06:59:31;;;;;;;13.68;1.73;;;4.70;71.60;;;;;;4107072;28;20054;-83
2022/04/09 07:01:31;;;;;;;13.07;1.80;;;4.90;71.80;;;;;;4107557;28;20089;-84
2022/04/09 07:03:32;;;;;;;14.20;1.50;;;4.80;71.30;;;;;;4125694;28;20023;-83
2022/04/09 07:05:33;;;;;;;10.65;1.70;;;5.00;71.50;;;;;;4114738;28;20030;-83
2022/04/09 07:07:34;;;;;;;12.20;1.65;;;4.90;71.00;;;;;;4116875;28;20036;-84
2022/04/09 07:09:35;;;;;;;10.38;1.52;;;4.90;71.00;;;;;;4116861;28;20034;-84
2022/04/09 07:11:35;;;;;;;6.35;1.65;;;5.10;70.90;;;;;;4109730;28;20189;-83
2022/04/09 07:13:36;;;;;;;12.95;1.90;;;5.00;70.80;;;;;;4114034;28;20101;-84
2022/04/09 07:15:37;;;;;;;12.52;1.98;;;5.00;70.60;;;;;;4110132;28;20035;-84
2022/04/09 07:17:40;;;;;;;9.30;1.92;;;5.10;70.80;;;;;;4118840;28;20452;-83
2022/04/09 07:19:42;;;;;;;;;;;5.10;70.30;;;;;;4119453;28;20030;-88
2022/04/09 07:21:43;;;;;;;9.88;1.63;;;5.10;70.00;;;;;;4114691;28;19929;-83
2022/04/09 07:23:43;;;;;;;10.60;1.17;;;5.30;69.60;;;;;;4121387;28;20448;-83
2022/04/09 07:25:44;;;;;;;13.70;1.70;;;5.20;69.20;;;;;;4115281;28;20038;-84
2022/04/09 07:27:45;;;;;;;9.68;1.40;;;5.20;69.10;;;;;;4115326;28;20027;-84
2022/04/09 07:29:47;;;;;;;11.65;1.70;;;5.30;68.40;;;;;;4135072;28;20041;-85
2022/04/09 07:31:47;;;;;;;14.15;1.67;;;5.30;68.10;;;;;;4116174;28;20031;-84
2022/04/09 07:33:48;;;;;;;8.23;1.52;;;5.30;67.50;;;;;;4115244;28;20034;-86
2022/04/09 07:35:49;;;;;;;12.40;1.92;;;5.30;67.20;;;;;;4123015;28;20030;-84
2022/04/09 07:37:51;;;;;;;12.55;1.92;;;5.30;66.80;;;;;;4123903;28;20023;-83
2022/04/09 07:39:52;;;;;;;13.80;1.35;;;5.40;66.40;;;;;;4127390;28;20508;-83
2022/04/09 07:41:53;;;;;;;9.52;1.48;;;5.40;65.60;;;;;;4110455;28;20027;-83
2022/04/09 07:43:53;;;;;;;10.10;1.35;;;5.50;65.60;;;;;;4107826;28;20551;-83
2022/04/09 07:45:54;;;;;;;10.73;1.88;;;5.50;65.30;;;;;;4113213;28;20020;-84
2022/04/09 07:47:59;;;;;;;11.65;1.40;;;5.50;64.70;;;;;;4108407;28;20035;-84
2022/04/09 07:50:02;;;;;;;13.27;1.33;;;5.60;65.10;;;;;;4104106;28;20094;-83
2022/04/09 07:52:03;;;;;;;9.05;1.33;;;5.70;65.40;;;;;;4108576;28;20038;-86
2022/04/09 07:54:03;;;;;;;10.73;1.35;;;5.70;65.90;;;;;;4108000;28;20031;-82
2022/04/09 07:56:04;;;;;;;9.52;1.30;;;5.70;65.60;;;;;;4110238;28;20031;-83
2022/04/09 07:58:06;;;;;;;8.15;1.75;;;5.80;65.70;;;;;;4121755;28;20033;-84
2022/04/09 08:03:40;;;;;;;17.77;1.73;;;5.90;65.70;;;;;;4081788;23;20412;-82
2022/04/09 08:05:41;;;;;;;10.73;1.38;;;6.00;65.10;;;;;;4083133;28;20058;-84
2022/04/09 08:07:41;;;;;;;11.27;1.60;;;5.90;64.20;;;;;;4088498;28;20480;-82
2022/04/09 08:09:45;;;;;;;6.60;1.75;;;6.00;64.80;;;;;;4083000;28;20095;-81
2022/04/09 08:11:46;;;;;;;11.40;1.50;;;6.00;65.70;;;;;;4085786;28;20457;-87
2022/04/09 08:13:48;;;;;;;10.38;1.58;;;6.10;65.00;;;;;;4087107;28;20122;-83
2022/04/09 08:15:49;;;;;;;7.78;1.40;;;6.10;64.30;;;;;;4084734;28;20403;-82
2022/04/09 08:17:51;;;;;;;10.32;1.67;;;6.10;64.30;;;;;;4087834;28;20127;-83
2022/04/09 08:19:51;;;;;;;9.48;1.55;;;6.20;64.10;;;;;;4086731;28;20074;-83
2022/04/09 08:21:55;;;;;;;7.60;1.25;;;6.20;62.60;;;;;;4082901;28;20043;-83
2022/04/09 08:23:55;;;;;;;13.75;1.45;;;6.30;59.90;;;;;;4085951;28;20512;-81
2022/04/09 08:25:56;;;;;;;15.88;1.73;;;6.30;60.50;;;;;;4086533;28;20108;-85
2022/04/09 08:27:57;;;;;;;8.00;1.65;;;6.40;61.00;;;;;;4090610;28;20050;-84
2022/04/09 08:29:58;;;;;;;11.20;1.60;;;6.50;61.70;;;;;;4089153;28;20031;-84
2022/04/09 08:31:58;;;;;;;14.70;1.77;;;6.50;62.10;;;;;;4087139;28;20042;-82
2022/04/09 08:33:59;;;;;;;10.02;1.80;;;6.60;62.30;;;;;;4086628;28;20209;-82
2022/04/09 08:36:02;;;;;;;12.50;1.63;;;6.60;62.70;;;;;;4089608;28;20058;-83
2022/04/09 08:38:03;;;;;;;8.20;1.50;;;6.70;61.70;;;;;;4090136;28;20031;-84
2022/04/09 08:40:04;;;;;;;8.88;1.38;;;6.60;61.30;;;;;;4091635;28;20062;-83
2022/04/09 08:42:07;;;;;;;10.57;1.00;;;6.60;61.30;;;;;;4085829;28;20086;-85
2022/04/09 08:44:09;;;;;;;12.10;1.25;;;6.40;59.80;;;;;;4084969;28;20055;-81
2022/04/09 08:46:10;;;;;;;8.00;1.48;;;6.30;60.10;;;;;;4081520;28;20047;-80
2022/04/09 08:48:11;;;;;;;8.48;1.20;;;6.20;61.00;;;;;;4082569;28;20039;-81
2022/04/09 08:50:14;;;;;;;8.57;1.30;;;6.10;62.60;;;;;;4101022;28;20166;-81
2022/04/09 08:52:15;;;;;;;10.07;1.70;;;6.00;64.50;;;;;;4103691;28;20027;-80
2022/04/09 08:54:17;;;;;;;12.13;1.48;;;6.00;66.60;;;;;;4081688;28;20043;-85
2022/04/09 08:56:18;;;;;;;9.23;1.48;;;6.00;67.30;;;;;;4088736;28;20035;-81
2022/04/09 08:58:19;;;;;;;9.77;1.45;;;5.90;67.60;;;;;;4089307;28;20130;-80
2022/04/09 09:00:20;;;;;;;3.92;0.90;;;5.90;67.90;;;;;;4099377;28;20038;-83
2022/04/09 09:02:21;;;;;;;15.20;1.70;;;6.00;67.00;;;;;;4084655;28;20042;-83
2022/04/09 09:04:22;;;;;;;7.55;0.90;;;6.00;66.70;;;;;;4081779;28;20023;-85
2022/04/09 09:06:27;;;;;;;6.72;0.80;;;6.00;65.30;;;;;;4086979;28;20035;-83
2022/04/09 09:08:37;;;;;;;4.57;0.65;;;5.90;65.20;;;;;;4087690;28;20038;-83
2022/04/09 09:10:38;;;;;;;5.43;0.47;;;5.70;64.70;;;;;;4085683;28;21657;-82
2022/04/09 09:12:39;;;;;;;3.85;0.30;;;5.70;64.70;;;;;;4086695;28;20035;-84
2022/04/09 09:14:46;;;;;;;2.70;0.40;;;5.60;64.80;;;;;;4085808;28;20069;-82
2022/04/09 09:16:48;;;;;;;5.63;0.70;;;5.50;64.80;;;;;;4103077;28;20030;-86
2022/04/09 09:19:03;;;;;;;5.57;0.57;;;5.60;65.30;;;;;;4068551;29;20031;-82
2022/04/09 09:21:03;;;;;;;6.75;0.80;;;5.40;66.00;;;;;;4081630;28;20526;-83
2022/04/09 09:23:04;;;;;;;4.60;0.98;;;5.40;66.70;;;;;;4082290;28;20020;-81
2022/04/09 09:25:08;;;;;;;3.45;0.77;;;5.30;66.60;;;;;;4070988;29;20070;-83
2022/04/09 09:27:09;;;;;;;8.60;1.20;;;5.20;67.20;;;;;;4080770;28;20039;-81
2022/04/09 09:29:22;;;;;;;7.78;0.90;;;5.30;67.80;;;;;;4085050;28;20046;-82
2022/04/09 09:31:42;;;;;;;6.95;1.27;;;5.30;68.30;;;;;;4081393;28;20046;-82
2022/04/09 09:33:48;;;;;;;9.35;0.93;;;5.40;69.00;;;;;;4082586;28;20039;-86
2022/04/09 09:36:01;;;;;;;14.15;1.42;;;5.30;69.50;;;;;;4102630;28;20509;-80
2022/04/09 09:38:19;;;;;;;11.50;1.20;;;5.40;69.00;;;;;;4080715;28;20039;-82
2022/04/09 09:40:34;;;;;;;11.52;1.35;;;5.50;69.20;;;;;;4102151;28;20055;-83
2022/04/09 09:42:35;;;;;;;6.82;1.02;;;5.50;69.10;;;;;;4095337;28;20027;-82
2022/04/09 09:44:43;;;;;;;5.43;1.08;;;5.60;68.80;;;;;;4094010;28;20030;-83
2022/04/09 09:46:45;;;;;;;7.47;1.10;;;5.70;69.20;;;;;;4099918;28;20027;-81
2022/04/09 09:48:50;;;;;;;7.28;1.30;;;5.70;69.50;;;;;;4086282;28;20027;-82
2022/04/09 09:50:54;;;;;;;12.88;1.33;;;5.80;69.10;;;;;;4079975;28;20170;-82
2022/04/09 09:53:04;;;;;;;9.57;0.90;;;5.80;68.50;;;;;;4095411;28;20035;-84
2022/04/09 09:55:19;;;;;;;14.13;1.55;;;5.90;68.70;;;;;;4079931;28;20031;-84
2022/04/09 09:57:21;;;;;;;8.43;1.55;;;5.90;68.20;;;;;;4085038;28;20043;-86
2022/04/09 09:59:22;;;;;;;5.53;0.80;;;5.90;66.70;;;;;;4080747;28;20074;-82
2022/04/09 10:01:23;;;;;;;11.07;1.48;;;6.00;65.50;;;;;;4079676;28;20039;-82
2022/04/09 10:03:27;;;;;;;7.35;1.17;;;5.90;64.30;;;;;;4081148;28;20360;-85
2022/04/09 10:05:28;;;;;;;11.35;1.35;;;5.90;64.10;;;;;;4078221;28;20142;-85
2022/04/09 10:07:28;;;;;;;8.35;1.20;;;5.90;64.20;;;;;;4068755;29;20504;-82
2022/04/09 10:09:29;;;;;;;11.93;2.28;;;5.90;64.20;;;;;;4081198;28;20049;-82
2022/04/09 10:11:34;;;;;;;14.32;2.10;;;5.90;64.30;;;;;;4074998;28;20099;-84
2022/04/09 10:13:36;;;;;;;11.40;1.40;;;5.80;64.20;;;;;;4086701;28;20026;-85
2022/04/09 10:15:39;;;;;;;9.77;1.20;;;5.80;65.00;;;;;;4084221;28;20036;-83
2022/04/09 10:17:40;;;;;;;9.82;1.48;;;5.80;64.90;;;;;;4082250;28;20086;-83
2022/04/09 10:19:42;;;;;;;18.17;2.05;;;5.90;64.60;;;;;;4082283;28;20093;-86
2022/04/09 10:21:46;;;;;;;12.13;1.85;;;5.80;63.80;;;;;;4096266;28;20751;-84
2022/04/09 10:23:48;;;;;;;11.57;1.50;;;5.80;62.10;;;;;;4094932;28;20109;-83
2022/04/09 10:25:51;;;;;;;15.77;2.45;;;5.90;62.30;;;;;;4083893;28;20503;-83
2022/04/09 10:27:58;;;;;;;13.02;2.15;;;5.90;61.40;;;;;;4095186;28;20027;-82
2022/04/09 10:30:02;;;;;;;19.60;1.90;;;6.00;60.80;;;;;;4100720;28;20047;-82
2022/04/09 10:32:03;;;;;;;15.05;1.70;;;6.00;58.90;;;;;;4097121;28;20034;-85
2022/04/09 10:34:06;;;;;;;14.10;2.03;;;6.00;57.70;;;;;;4095638;28;20106;-84
2022/04/09 10:36:07;;;;;;;14.48;2.38;;;6.00;57.40;;;;;;4082795;28;20053;-81
2022/04/09 10:38:07;;;;;;;10.60;1.98;;;6.10;58.10;;;;;;4102419;28;20108;-85
2022/04/09 10:40:09;;;;;;;17.70;2.35;;;6.10;58.10;;;;;;4097811;28;20038;-85